Yuba County Airport
KMYV : rendu visible

Aérodrome :











RETROUVEZ-NOUS SUR...

 
LOGIN :

S'inscrire | Disclaimer

   EN    FR    IT 

 









Légende :    VFR   VFR Marginal   IFR   IFR Intensif   IFR Très Intensif
Visi : 
Plafond : 
>= 8 km
>= 3000ft
5 à 8 km
1000 à 3000 ft
1500m à 5 km
500 à 1000 ft
800 à 1500m
200 à 500 ft
< 800m
< 200 ft
Symboles :   Orages  Brouillard  Fortes neiges  Fortes précipitations  Vent > 20 kt






- Altitude de l'aérodrome : 64 ft


KMYV - Yuba County

DERNIER METAR :
  • 202353Z AUTO 01009G19KT 10SM CLR 20/M01 A2951 RMK AO2 SLP997 T02001006 10222 20183 55004

METARs EXPIRÉS :
  • 202253Z AUTO 01012G21KT 10SM CLR 21/00 A2951 RMK AO2 SLP996 T02060000
  • 202153Z AUTO 01015G23KT 10SM CLR 22/M01 A2952 RMK AO2 PK WND 03027/2104 SLP999 T02171011

TAF N/A



MET'MAP, la Météo Aéronautique d'un coup d'oeil ! - Copyright ORBIFLY Décembre 2007 - Disclaimer

ORBIFLY MET'MAP TEAM :

Programmation & Développement : Alexandra Zaïnal
Conception & Développement : Baudouin d'Aumeries
Co-Programmation & Développement : Marc-Olivier Méhu
Soutien technique & logistique : Manuel Goepfert

Contact : metmap@orbifly.com




SOURCES & CREDITS :

   NOAA       Earth
Advisory